sensor_id;sensor_type;location;lat;lon;timestamp;P1;durP1;ratioP1;P2;durP2;ratioP2
45650;SDS011;31365;48.858;8.530;2024-01-27T00:00:20;6.90;;;6.27;;
45650;SDS011;31365;48.858;8.530;2024-01-27T00:02:49;6.77;;;6.17;;
45650;SDS011;31365;48.858;8.530;2024-01-27T00:05:17;8.00;;;6.17;;
45650;SDS011;31365;48.858;8.530;2024-01-27T00:07:47;6.87;;;6.37;;
45650;SDS011;31365;48.858;8.530;2024-01-27T00:10:16;6.30;;;5.70;;
45650;SDS011;31365;48.858;8.530;2024-01-27T00:12:44;6.40;;;5.90;;
45650;SDS011;31365;48.858;8.530;2024-01-27T00:15:13;8.57;;;6.53;;
45650;SDS011;31365;48.858;8.530;2024-01-27T00:17:41;7.20;;;6.50;;
45650;SDS011;31365;48.858;8.530;2024-01-27T00:20:10;6.70;;;6.10;;
45650;SDS011;31365;48.858;8.530;2024-01-27T00:22:39;7.67;;;7.07;;
45650;SDS011;31365;48.858;8.530;2024-01-27T00:25:09;8.30;;;7.60;;
45650;SDS011;31365;48.858;8.530;2024-01-27T00:27:38;8.20;;;7.30;;
45650;SDS011;31365;48.858;8.530;2024-01-27T00:30:07;7.27;;;6.77;;
45650;SDS011;31365;48.858;8.530;2024-01-27T00:32:38;6.13;;;5.73;;
45650;SDS011;31365;48.858;8.530;2024-01-27T00:35:07;5.70;;;5.30;;
45650;SDS011;31365;48.858;8.530;2024-01-27T00:37:37;6.10;;;5.70;;
45650;SDS011;31365;48.858;8.530;2024-01-27T00:40:07;6.10;;;5.47;;
45650;SDS011;31365;48.858;8.530;2024-01-27T00:42:39;5.77;;;5.27;;
45650;SDS011;31365;48.858;8.530;2024-01-27T00:45:08;6.87;;;6.17;;
45650;SDS011;31365;48.858;8.530;2024-01-27T00:47:37;5.83;;;5.30;;
45650;SDS011;31365;48.858;8.530;2024-01-27T00:50:06;5.70;;;5.30;;
45650;SDS011;31365;48.858;8.530;2024-01-27T00:52:36;5.63;;;5.23;;
45650;SDS011;31365;48.858;8.530;2024-01-27T00:55:05;5.30;;;4.80;;
45650;SDS011;31365;48.858;8.530;2024-01-27T00:57:37;5.47;;;5.07;;
45650;SDS011;31365;48.858;8.530;2024-01-27T01:00:06;5.30;;;4.90;;
45650;SDS011;31365;48.858;8.530;2024-01-27T01:02:37;5.23;;;4.73;;
45650;SDS011;31365;48.858;8.530;2024-01-27T01:05:07;5.43;;;4.83;;
45650;SDS011;31365;48.858;8.530;2024-01-27T01:07:36;5.30;;;4.90;;
45650;SDS011;31365;48.858;8.530;2024-01-27T01:10:05;6.10;;;5.60;;
45650;SDS011;31365;48.858;8.530;2024-01-27T01:12:34;4.73;;;4.53;;
45650;SDS011;31365;48.858;8.530;2024-01-27T01:15:05;4.80;;;4.50;;
45650;SDS011;31365;48.858;8.530;2024-01-27T01:17:34;4.54;;;4.29;;
45650;SDS011;31365;48.858;8.530;2024-01-27T01:20:03;4.80;;;4.50;;
45650;SDS011;31365;48.858;8.530;2024-01-27T01:22:32;4.57;;;4.37;;
45650;SDS011;31365;48.858;8.530;2024-01-27T01:25:01;4.83;;;4.53;;
45650;SDS011;31365;48.858;8.530;2024-01-27T01:27:30;5.03;;;4.53;;
45650;SDS011;31365;48.858;8.530;2024-01-27T01:30:00;4.50;;;4.20;;
45650;SDS011;31365;48.858;8.530;2024-01-27T01:32:28;4.30;;;4.10;;
45650;SDS011;31365;48.858;8.530;2024-01-27T01:34:56;4.17;;;3.97;;
45650;SDS011;31365;48.858;8.530;2024-01-27T01:37:24;4.63;;;4.33;;
45650;SDS011;31365;48.858;8.530;2024-01-27T01:39:53;4.30;;;4.10;;
45650;SDS011;31365;48.858;8.530;2024-01-27T01:42:21;4.50;;;4.20;;
45650;SDS011;31365;48.858;8.530;2024-01-27T01:44:51;9.23;;;4.40;;
45650;SDS011;31365;48.858;8.530;2024-01-27T01:47:21;4.67;;;4.23;;
45650;SDS011;31365;48.858;8.530;2024-01-27T01:49:50;4.13;;;3.83;;
45650;SDS011;31365;48.858;8.530;2024-01-27T01:52:20;4.30;;;4.00;;
45650;SDS011;31365;48.858;8.530;2024-01-27T01:54:49;4.33;;;4.00;;
45650;SDS011;31365;48.858;8.530;2024-01-27T01:57:18;4.30;;;4.10;;
45650;SDS011;31365;48.858;8.530;2024-01-27T01:59:46;4.27;;;3.90;;
45650;SDS011;31365;48.858;8.530;2024-01-27T02:02:15;6.27;;;4.30;;
45650;SDS011;31365;48.858;8.530;2024-01-27T02:04:45;4.43;;;4.13;;
45650;SDS011;31365;48.858;8.530;2024-01-27T02:07:14;4.30;;;4.00;;
45650;SDS011;31365;48.858;8.530;2024-01-27T02:09:43;4.63;;;4.33;;
45650;SDS011;31365;48.858;8.530;2024-01-27T02:12:11;4.73;;;4.23;;
45650;SDS011;31365;48.858;8.530;2024-01-27T02:14:40;4.40;;;4.00;;
45650;SDS011;31365;48.858;8.530;2024-01-27T02:17:08;4.87;;;4.50;;
45650;SDS011;31365;48.858;8.530;2024-01-27T02:19:36;4.30;;;4.00;;
45650;SDS011;31365;48.858;8.530;2024-01-27T02:22:07;4.77;;;4.47;;
45650;SDS011;31365;48.858;8.530;2024-01-27T02:24:37;4.53;;;4.10;;
45650;SDS011;31365;48.858;8.530;2024-01-27T02:27:06;4.60;;;4.20;;
45650;SDS011;31365;48.858;8.530;2024-01-27T02:29:35;4.70;;;4.40;;
45650;SDS011;31365;48.858;8.530;2024-01-27T02:32:04;4.60;;;4.30;;
45650;SDS011;31365;48.858;8.530;2024-01-27T02:34:33;4.53;;;4.13;;
45650;SDS011;31365;48.858;8.530;2024-01-27T02:37:02;4.70;;;4.30;;
45650;SDS011;31365;48.858;8.530;2024-01-27T02:39:33;4.53;;;4.30;;
45650;SDS011;31365;48.858;8.530;2024-01-27T02:42:03;4.37;;;4.07;;
45650;SDS011;31365;48.858;8.530;2024-01-27T02:44:32;3.90;;;3.70;;
45650;SDS011;31365;48.858;8.530;2024-01-27T02:47:00;5.13;;;4.07;;
45650;SDS011;31365;48.858;8.530;2024-01-27T02:49:29;4.70;;;4.30;;
45650;SDS011;31365;48.858;8.530;2024-01-27T02:51:58;4.23;;;4.00;;
45650;SDS011;31365;48.858;8.530;2024-01-27T02:54:26;4.50;;;4.20;;
45650;SDS011;31365;48.858;8.530;2024-01-27T02:56:55;4.17;;;3.93;;
45650;SDS011;31365;48.858;8.530;2024-01-27T02:59:25;4.60;;;4.20;;
45650;SDS011;31365;48.858;8.530;2024-01-27T03:01:53;4.03;;;3.70;;
45650;SDS011;31365;48.858;8.530;2024-01-27T03:04:22;4.43;;;4.00;;
45650;SDS011;31365;48.858;8.530;2024-01-27T03:06:50;3.60;;;3.40;;
45650;SDS011;31365;48.858;8.530;2024-01-27T03:09:19;4.07;;;3.77;;
45650;SDS011;31365;48.858;8.530;2024-01-27T03:11:48;5.60;;;4.10;;
45650;SDS011;31365;48.858;8.530;2024-01-27T03:14:36;4.10;;;3.80;;
45650;SDS011;31365;48.858;8.530;2024-01-27T03:17:06;4.33;;;3.93;;
45650;SDS011;31365;48.858;8.530;2024-01-27T03:19:35;4.13;;;3.93;;
45650;SDS011;31365;48.858;8.530;2024-01-27T03:22:04;4.00;;;3.80;;
45650;SDS011;31365;48.858;8.530;2024-01-27T03:24:32;4.00;;;3.80;;
45650;SDS011;31365;48.858;8.530;2024-01-27T03:27:01;4.10;;;3.70;;
45650;SDS011;31365;48.858;8.530;2024-01-27T03:29:30;4.10;;;3.90;;
45650;SDS011;31365;48.858;8.530;2024-01-27T03:32:00;4.10;;;3.80;;
45650;SDS011;31365;48.858;8.530;2024-01-27T03:34:29;4.30;;;4.00;;
45650;SDS011;31365;48.858;8.530;2024-01-27T03:36:57;4.20;;;3.80;;
45650;SDS011;31365;48.858;8.530;2024-01-27T03:39:26;4.70;;;4.30;;
45650;SDS011;31365;48.858;8.530;2024-01-27T03:41:55;4.53;;;4.23;;
45650;SDS011;31365;48.858;8.530;2024-01-27T03:44:23;4.40;;;4.10;;
45650;SDS011;31365;48.858;8.530;2024-01-27T03:46:52;6.53;;;4.10;;
45650;SDS011;31365;48.858;8.530;2024-01-27T03:49:22;4.60;;;4.20;;
45650;SDS011;31365;48.858;8.530;2024-01-27T03:51:50;4.53;;;4.13;;
45650;SDS011;31365;48.858;8.530;2024-01-27T03:54:19;4.50;;;4.10;;
45650;SDS011;31365;48.858;8.530;2024-01-27T03:56:48;4.00;;;3.70;;
45650;SDS011;31365;48.858;8.530;2024-01-27T03:59:16;5.47;;;4.20;;
45650;SDS011;31365;48.858;8.530;2024-01-27T04:01:44;4.27;;;3.97;;
45650;SDS011;31365;48.858;8.530;2024-01-27T04:04:13;4.37;;;3.97;;
45650;SDS011;31365;48.858;8.530;2024-01-27T04:06:42;4.03;;;3.73;;
45650;SDS011;31365;48.858;8.530;2024-01-27T04:09:11;4.47;;;4.00;;
45650;SDS011;31365;48.858;8.530;2024-01-27T04:11:40;4.97;;;4.00;;
45650;SDS011;31365;48.858;8.530;2024-01-27T04:14:09;6.00;;;4.17;;
45650;SDS011;31365;48.858;8.530;2024-01-27T04:16:38;4.00;;;3.70;;
45650;SDS011;31365;48.858;8.530;2024-01-27T04:19:06;4.50;;;4.10;;
45650;SDS011;31365;48.858;8.530;2024-01-27T04:21:35;4.30;;;4.00;;
45650;SDS011;31365;48.858;8.530;2024-01-27T04:24:05;6.53;;;4.33;;
45650;SDS011;31365;48.858;8.530;2024-01-27T04:26:34;5.13;;;4.63;;
45650;SDS011;31365;48.858;8.530;2024-01-27T04:29:03;5.07;;;4.67;;
45650;SDS011;31365;48.858;8.530;2024-01-27T04:31:31;5.50;;;5.00;;
45650;SDS011;31365;48.858;8.530;2024-01-27T04:34:02;5.27;;;4.47;;
45650;SDS011;31365;48.858;8.530;2024-01-27T04:36:31;4.70;;;4.30;;
45650;SDS011;31365;48.858;8.530;2024-01-27T04:39:00;5.00;;;4.53;;
45650;SDS011;31365;48.858;8.530;2024-01-27T04:41:30;4.30;;;4.00;;
45650;SDS011;31365;48.858;8.530;2024-01-27T04:43:59;6.13;;;4.40;;
45650;SDS011;31365;48.858;8.530;2024-01-27T04:46:27;4.47;;;4.17;;
45650;SDS011;31365;48.858;8.530;2024-01-27T04:48:56;5.20;;;4.80;;
45650;SDS011;31365;48.858;8.530;2024-01-27T04:51:25;4.60;;;4.20;;
45650;SDS011;31365;48.858;8.530;2024-01-27T04:53:53;4.97;;;4.10;;
45650;SDS011;31365;48.858;8.530;2024-01-27T04:56:22;4.60;;;4.30;;
45650;SDS011;31365;48.858;8.530;2024-01-27T04:58:52;5.57;;;5.00;;
45650;SDS011;31365;48.858;8.530;2024-01-27T05:01:20;4.60;;;4.30;;
45650;SDS011;31365;48.858;8.530;2024-01-27T05:03:48;5.80;;;5.40;;
45650;SDS011;31365;48.858;8.530;2024-01-27T05:06:18;4.90;;;4.40;;
45650;SDS011;31365;48.858;8.530;2024-01-27T05:08:46;5.17;;;4.80;;
45650;SDS011;31365;48.858;8.530;2024-01-27T05:11:15;4.20;;;3.90;;
45650;SDS011;31365;48.858;8.530;2024-01-27T05:13:53;6.73;;;4.30;;
45650;SDS011;31365;48.858;8.530;2024-01-27T05:16:22;5.97;;;4.60;;
45650;SDS011;31365;48.858;8.530;2024-01-27T05:18:52;4.97;;;4.47;;
45650;SDS011;31365;48.858;8.530;2024-01-27T05:21:21;5.07;;;4.60;;
45650;SDS011;31365;48.858;8.530;2024-01-27T05:23:50;7.17;;;4.30;;
45650;SDS011;31365;48.858;8.530;2024-01-27T05:26:18;4.70;;;4.40;;
45650;SDS011;31365;48.858;8.530;2024-01-27T05:28:47;4.70;;;4.30;;
45650;SDS011;31365;48.858;8.530;2024-01-27T05:31:17;4.73;;;4.43;;
45650;SDS011;31365;48.858;8.530;2024-01-27T05:33:45;5.20;;;4.80;;
45650;SDS011;31365;48.858;8.530;2024-01-27T05:36:14;5.37;;;4.33;;
45650;SDS011;31365;48.858;8.530;2024-01-27T05:38:43;5.17;;;4.47;;
45650;SDS011;31365;48.858;8.530;2024-01-27T05:41:12;4.60;;;4.20;;
45650;SDS011;31365;48.858;8.530;2024-01-27T05:43:40;4.30;;;3.93;;
45650;SDS011;31365;48.858;8.530;2024-01-27T05:46:09;5.47;;;4.90;;
45650;SDS011;31365;48.858;8.530;2024-01-27T05:48:39;7.33;;;5.10;;
45650;SDS011;31365;48.858;8.530;2024-01-27T05:51:07;5.40;;;4.93;;
45650;SDS011;31365;48.858;8.530;2024-01-27T05:53:36;4.80;;;4.40;;
45650;SDS011;31365;48.858;8.530;2024-01-27T05:56:05;4.87;;;4.47;;
45650;SDS011;31365;48.858;8.530;2024-01-27T05:58:33;5.90;;;5.07;;
45650;SDS011;31365;48.858;8.530;2024-01-27T06:01:02;9.67;;;6.80;;
45650;SDS011;31365;48.858;8.530;2024-01-27T06:03:31;8.73;;;5.77;;
45650;SDS011;31365;48.858;8.530;2024-01-27T06:06:02;6.43;;;5.43;;
45650;SDS011;31365;48.858;8.530;2024-01-27T06:08:31;6.27;;;5.77;;
45650;SDS011;31365;48.858;8.530;2024-01-27T06:10:59;8.70;;;6.27;;
45650;SDS011;31365;48.858;8.530;2024-01-27T06:13:29;4.63;;;4.33;;
45650;SDS011;31365;48.858;8.530;2024-01-27T06:15:59;4.70;;;4.40;;
45650;SDS011;31365;48.858;8.530;2024-01-27T06:18:27;4.73;;;4.30;;
45650;SDS011;31365;48.858;8.530;2024-01-27T06:20:56;4.67;;;4.13;;
45650;SDS011;31365;48.858;8.530;2024-01-27T06:23:29;4.10;;;3.80;;
45650;SDS011;31365;48.858;8.530;2024-01-27T06:25:57;4.17;;;3.87;;
45650;SDS011;31365;48.858;8.530;2024-01-27T06:28:26;4.67;;;4.37;;
45650;SDS011;31365;48.858;8.530;2024-01-27T06:30:54;6.00;;;5.60;;
45650;SDS011;31365;48.858;8.530;2024-01-27T06:33:23;5.10;;;4.80;;
45650;SDS011;31365;48.858;8.530;2024-01-27T06:35:52;4.33;;;4.03;;
45650;SDS011;31365;48.858;8.530;2024-01-27T06:38:21;5.73;;;4.40;;
45650;SDS011;31365;48.858;8.530;2024-01-27T06:40:51;5.83;;;5.43;;
45650;SDS011;31365;48.858;8.530;2024-01-27T06:43:19;6.10;;;5.70;;
45650;SDS011;31365;48.858;8.530;2024-01-27T06:45:48;5.87;;;5.47;;
45650;SDS011;31365;48.858;8.530;2024-01-27T06:48:16;5.80;;;5.40;;
45650;SDS011;31365;48.858;8.530;2024-01-27T06:50:45;5.73;;;5.23;;
45650;SDS011;31365;48.858;8.530;2024-01-27T06:53:13;5.87;;;5.10;;
45650;SDS011;31365;48.858;8.530;2024-01-27T06:55:41;5.20;;;4.80;;
45650;SDS011;31365;48.858;8.530;2024-01-27T06:58:11;6.43;;;5.83;;
45650;SDS011;31365;48.858;8.530;2024-01-27T07:00:40;8.70;;;7.80;;
45650;SDS011;31365;48.858;8.530;2024-01-27T07:03:09;5.50;;;5.10;;
45650;SDS011;31365;48.858;8.530;2024-01-27T07:05:39;4.67;;;4.23;;
45650;SDS011;31365;48.858;8.530;2024-01-27T07:08:08;4.67;;;4.37;;
45650;SDS011;31365;48.858;8.530;2024-01-27T07:10:37;4.40;;;4.10;;
45650;SDS011;31365;48.858;8.530;2024-01-27T07:13:06;5.60;;;5.20;;
45650;SDS011;31365;48.858;8.530;2024-01-27T07:15:36;5.10;;;4.70;;
45650;SDS011;31365;48.858;8.530;2024-01-27T07:18:04;5.00;;;4.70;;
45650;SDS011;31365;48.858;8.530;2024-01-27T07:20:35;5.17;;;4.73;;
45650;SDS011;31365;48.858;8.530;2024-01-27T07:23:04;4.77;;;4.47;;
45650;SDS011;31365;48.858;8.530;2024-01-27T07:25:33;5.17;;;4.67;;
45650;SDS011;31365;48.858;8.530;2024-01-27T07:28:02;4.97;;;4.50;;
45650;SDS011;31365;48.858;8.530;2024-01-27T07:30:32;5.33;;;4.93;;
45650;SDS011;31365;48.858;8.530;2024-01-27T07:33:01;5.63;;;5.10;;
45650;SDS011;31365;48.858;8.530;2024-01-27T07:35:31;4.77;;;4.37;;
45650;SDS011;31365;48.858;8.530;2024-01-27T07:37:59;6.40;;;5.90;;
45650;SDS011;31365;48.858;8.530;2024-01-27T07:40:27;4.90;;;4.30;;
45650;SDS011;31365;48.858;8.530;2024-01-27T07:42:56;5.73;;;5.40;;
45650;SDS011;31365;48.858;8.530;2024-01-27T07:45:25;5.47;;;5.00;;
45650;SDS011;31365;48.858;8.530;2024-01-27T07:47:54;5.83;;;5.27;;
45650;SDS011;31365;48.858;8.530;2024-01-27T07:50:28;5.77;;;5.23;;
45650;SDS011;31365;48.858;8.530;2024-01-27T07:52:57;6.07;;;5.67;;
45650;SDS011;31365;48.858;8.530;2024-01-27T07:55:25;10.07;;;8.90;;
45650;SDS011;31365;48.858;8.530;2024-01-27T07:57:54;14.57;;;10.23;;
45650;SDS011;31365;48.858;8.530;2024-01-27T08:00:22;15.00;;;10.80;;
45650;SDS011;31365;48.858;8.530;2024-01-27T08:02:51;11.67;;;9.07;;
45650;SDS011;31365;48.858;8.530;2024-01-27T08:05:19;8.63;;;7.10;;
45650;SDS011;31365;48.858;8.530;2024-01-27T08:07:49;8.57;;;6.90;;
45650;SDS011;31365;48.858;8.530;2024-01-27T08:10:18;8.90;;;7.17;;
45650;SDS011;31365;48.858;8.530;2024-01-27T08:12:47;12.60;;;9.70;;
45650;SDS011;31365;48.858;8.530;2024-01-27T08:15:15;17.43;;;11.60;;
45650;SDS011;31365;48.858;8.530;2024-01-27T08:17:44;15.63;;;12.63;;
45650;SDS011;31365;48.858;8.530;2024-01-27T08:20:35;15.37;;;12.93;;
45650;SDS011;31365;48.858;8.530;2024-01-27T08:23:05;16.93;;;14.50;;
45650;SDS011;31365;48.858;8.530;2024-01-27T08:25:35;17.97;;;16.10;;
45650;SDS011;31365;48.858;8.530;2024-01-27T08:28:03;18.43;;;15.00;;
45650;SDS011;31365;48.858;8.530;2024-01-27T08:30:33;15.47;;;13.80;;
45650;SDS011;31365;48.858;8.530;2024-01-27T08:33:05;22.10;;;15.83;;
45650;SDS011;31365;48.858;8.530;2024-01-27T08:35:33;19.70;;;15.20;;
45650;SDS011;31365;48.858;8.530;2024-01-27T08:38:01;17.73;;;15.50;;
45650;SDS011;31365;48.858;8.530;2024-01-27T08:40:33;19.07;;;15.23;;
45650;SDS011;31365;48.858;8.530;2024-01-27T08:43:03;16.97;;;14.77;;
45650;SDS011;31365;48.858;8.530;2024-01-27T08:45:32;16.90;;;15.20;;
45650;SDS011;31365;48.858;8.530;2024-01-27T08:48:01;20.40;;;18.37;;
45650;SDS011;31365;48.858;8.530;2024-01-27T08:50:30;15.73;;;14.17;;
45650;SDS011;31365;48.858;8.530;2024-01-27T08:52:59;20.07;;;16.87;;
45650;SDS011;31365;48.858;8.530;2024-01-27T08:55:27;17.33;;;15.43;;
45650;SDS011;31365;48.858;8.530;2024-01-27T08:57:58;11.17;;;10.17;;
45650;SDS011;31365;48.858;8.530;2024-01-27T09:00:26;11.00;;;9.90;;
45650;SDS011;31365;48.858;8.530;2024-01-27T09:02:55;9.93;;;9.03;;
45650;SDS011;31365;48.858;8.530;2024-01-27T09:05:24;8.93;;;7.70;;
45650;SDS011;31365;48.858;8.530;2024-01-27T09:07:54;8.23;;;7.53;;
45650;SDS011;31365;48.858;8.530;2024-01-27T09:10:22;9.67;;;8.77;;
45650;SDS011;31365;48.858;8.530;2024-01-27T09:12:52;11.17;;;9.43;;
45650;SDS011;31365;48.858;8.530;2024-01-27T09:15:21;11.03;;;8.93;;
45650;SDS011;31365;48.858;8.530;2024-01-27T09:17:50;10.37;;;8.60;;
45650;SDS011;31365;48.858;8.530;2024-01-27T09:20:19;12.53;;;10.27;;
45650;SDS011;31365;48.858;8.530;2024-01-27T09:22:47;17.20;;;13.70;;
45650;SDS011;31365;48.858;8.530;2024-01-27T09:25:17;21.30;;;15.07;;
45650;SDS011;31365;48.858;8.530;2024-01-27T09:27:45;19.70;;;14.67;;
45650;SDS011;31365;48.858;8.530;2024-01-27T09:30:15;21.33;;;14.87;;
45650;SDS011;31365;48.858;8.530;2024-01-27T09:32:45;17.60;;;13.53;;
45650;SDS011;31365;48.858;8.530;2024-01-27T09:35:13;13.57;;;11.93;;
45650;SDS011;31365;48.858;8.530;2024-01-27T09:37:42;15.03;;;12.20;;
45650;SDS011;31365;48.858;8.530;2024-01-27T09:40:12;14.53;;;11.33;;
45650;SDS011;31365;48.858;8.530;2024-01-27T09:42:42;15.07;;;10.43;;
45650;SDS011;31365;48.858;8.530;2024-01-27T09:45:18;11.13;;;9.67;;
45650;SDS011;31365;48.858;8.530;2024-01-27T09:47:52;9.30;;;8.53;;
45650;SDS011;31365;48.858;8.530;2024-01-27T09:50:24;13.80;;;12.40;;
45650;SDS011;31365;48.858;8.530;2024-01-27T09:52:53;18.70;;;16.67;;
45650;SDS011;31365;48.858;8.530;2024-01-27T09:55:22;14.37;;;12.47;;
45650;SDS011;31365;48.858;8.530;2024-01-27T09:57:51;9.63;;;8.73;;
45650;SDS011;31365;48.858;8.530;2024-01-27T10:00:19;9.23;;;8.33;;
45650;SDS011;31365;48.858;8.530;2024-01-27T10:02:49;10.27;;;8.03;;
45650;SDS011;31365;48.858;8.530;2024-01-27T10:05:22;8.47;;;7.77;;
45650;SDS011;31365;48.858;8.530;2024-01-27T10:07:52;8.27;;;7.67;;
45650;SDS011;31365;48.858;8.530;2024-01-27T10:10:23;9.80;;;7.97;;
45650;SDS011;31365;48.858;8.530;2024-01-27T10:12:53;8.50;;;7.60;;
45650;SDS011;31365;48.858;8.530;2024-01-27T10:15:26;8.70;;;7.53;;
45650;SDS011;31365;48.858;8.530;2024-01-27T10:18:05;7.20;;;6.70;;
45650;SDS011;31365;48.858;8.530;2024-01-27T10:20:35;7.20;;;6.50;;
45650;SDS011;31365;48.858;8.530;2024-01-27T10:23:11;6.70;;;6.13;;
45650;SDS011;31365;48.858;8.530;2024-01-27T10:25:41;7.50;;;6.90;;
45650;SDS011;31365;48.858;8.530;2024-01-27T10:28:11;8.47;;;6.40;;
45650;SDS011;31365;48.858;8.530;2024-01-27T10:30:39;7.03;;;6.10;;
45650;SDS011;31365;48.858;8.530;2024-01-27T10:33:10;5.07;;;4.73;;
45650;SDS011;31365;48.858;8.530;2024-01-27T10:35:41;7.00;;;4.90;;
45650;SDS011;31365;48.858;8.530;2024-01-27T10:38:10;6.53;;;4.10;;
45650;SDS011;31365;48.858;8.530;2024-01-27T10:40:39;7.27;;;3.23;;
45650;SDS011;31365;48.858;8.530;2024-01-27T10:43:08;4.63;;;2.93;;
45650;SDS011;31365;48.858;8.530;2024-01-27T10:45:40;5.97;;;2.73;;
45650;SDS011;31365;48.858;8.530;2024-01-27T10:48:11;8.53;;;3.50;;
45650;SDS011;31365;48.858;8.530;2024-01-27T10:50:41;9.23;;;3.47;;
45650;SDS011;31365;48.858;8.530;2024-01-27T10:53:17;6.07;;;3.10;;
45650;SDS011;31365;48.858;8.530;2024-01-27T10:55:53;5.83;;;2.93;;
45650;SDS011;31365;48.858;8.530;2024-01-27T10:58:25;5.80;;;3.07;;
45650;SDS011;31365;48.858;8.530;2024-01-27T11:00:58;5.73;;;3.60;;
45650;SDS011;31365;48.858;8.530;2024-01-27T11:03:30;4.37;;;3.57;;
45650;SDS011;31365;48.858;8.530;2024-01-27T11:06:00;9.00;;;3.60;;
45650;SDS011;31365;48.858;8.530;2024-01-27T11:08:30;7.33;;;3.87;;
45650;SDS011;31365;48.858;8.530;2024-01-27T11:11:00;5.20;;;3.90;;
45650;SDS011;31365;48.858;8.530;2024-01-27T11:13:30;8.57;;;5.40;;
45650;SDS011;31365;48.858;8.530;2024-01-27T11:16:00;8.97;;;5.70;;
45650;SDS011;31365;48.858;8.530;2024-01-27T11:18:30;6.03;;;4.03;;
45650;SDS011;31365;48.858;8.530;2024-01-27T11:21:00;7.83;;;4.20;;
45650;SDS011;31365;48.858;8.530;2024-01-27T11:23:32;4.10;;;3.70;;
45650;SDS011;31365;48.858;8.530;2024-01-27T11:26:03;5.20;;;3.67;;
45650;SDS011;31365;48.858;8.530;2024-01-27T11:28:33;7.47;;;4.07;;
45650;SDS011;31365;48.858;8.530;2024-01-27T11:31:03;5.13;;;3.70;;
45650;SDS011;31365;48.858;8.530;2024-01-27T11:33:39;6.13;;;3.90;;
45650;SDS011;31365;48.858;8.530;2024-01-27T11:36:17;7.73;;;4.33;;
45650;SDS011;31365;48.858;8.530;2024-01-27T11:38:49;4.37;;;3.97;;
45650;SDS011;31365;48.858;8.530;2024-01-27T11:41:23;5.47;;;3.90;;
45650;SDS011;31365;48.858;8.530;2024-01-27T11:43:54;6.03;;;3.90;;
45650;SDS011;31365;48.858;8.530;2024-01-27T11:46:24;6.33;;;3.83;;
45650;SDS011;31365;48.858;8.530;2024-01-27T11:48:56;6.70;;;3.85;;
45650;SDS011;31365;48.858;8.530;2024-01-27T11:51:25;3.92;;;3.53;;
45650;SDS011;31365;48.858;8.530;2024-01-27T11:53:54;7.38;;;4.15;;
45650;SDS011;31365;48.858;8.530;2024-01-27T11:56:22;5.38;;;4.00;;
45650;SDS011;31365;48.858;8.530;2024-01-27T11:58:52;6.78;;;4.13;;
45650;SDS011;31365;48.858;8.530;2024-01-27T12:01:20;4.38;;;2.42;;
45650;SDS011;31365;48.858;8.530;2024-01-27T12:03:49;4.97;;;4.30;;
45650;SDS011;31365;48.858;8.530;2024-01-27T12:06:19;3.38;;;2.33;;
45650;SDS011;31365;48.858;8.530;2024-01-27T12:08:49;8.32;;;2.83;;
45650;SDS011;31365;48.858;8.530;2024-01-27T12:11:22;4.35;;;2.88;;
45650;SDS011;31365;48.858;8.530;2024-01-27T12:13:51;3.30;;;2.42;;
45650;SDS011;31365;48.858;8.530;2024-01-27T12:16:21;4.72;;;2.97;;
45650;SDS011;31365;48.858;8.530;2024-01-27T12:18:53;4.97;;;2.63;;
45650;SDS011;31365;48.858;8.530;2024-01-27T12:21:24;6.05;;;2.85;;
45650;SDS011;31365;48.858;8.530;2024-01-27T12:23:53;5.28;;;2.40;;
45650;SDS011;31365;48.858;8.530;2024-01-27T12:26:26;5.03;;;2.60;;
45650;SDS011;31365;48.858;8.530;2024-01-27T12:28:57;4.45;;;2.47;;
45650;SDS011;31365;48.858;8.530;2024-01-27T12:31:27;5.70;;;2.50;;
45650;SDS011;31365;48.858;8.530;2024-01-27T12:33:56;4.75;;;2.50;;
45650;SDS011;31365;48.858;8.530;2024-01-27T12:36:28;4.32;;;2.70;;
45650;SDS011;31365;48.858;8.530;2024-01-27T12:38:57;4.25;;;2.90;;
45650;SDS011;31365;48.858;8.530;2024-01-27T12:41:28;5.32;;;4.20;;
45650;SDS011;31365;48.858;8.530;2024-01-27T12:43:59;3.78;;;2.70;;
45650;SDS011;31365;48.858;8.530;2024-01-27T12:46:28;5.50;;;4.95;;
45650;SDS011;31365;48.858;8.530;2024-01-27T12:48:57;4.13;;;2.70;;
45650;SDS011;31365;48.858;8.530;2024-01-27T12:51:26;6.70;;;4.82;;
45650;SDS011;31365;48.858;8.530;2024-01-27T12:54:02;5.48;;;4.50;;
45650;SDS011;31365;48.858;8.530;2024-01-27T12:56:30;6.13;;;4.53;;
45650;SDS011;31365;48.858;8.530;2024-01-27T12:59:04;6.22;;;4.63;;
45650;SDS011;31365;48.858;8.530;2024-01-27T13:01:34;5.50;;;4.47;;
45650;SDS011;31365;48.858;8.530;2024-01-27T13:04:03;12.38;;;9.55;;
45650;SDS011;31365;48.858;8.530;2024-01-27T13:06:32;16.90;;;11.70;;
45650;SDS011;31365;48.858;8.530;2024-01-27T13:09:02;13.38;;;9.38;;
45650;SDS011;31365;48.858;8.530;2024-01-27T13:11:32;17.98;;;12.07;;
45650;SDS011;31365;48.858;8.530;2024-01-27T13:14:00;5.45;;;4.65;;
45650;SDS011;31365;48.858;8.530;2024-01-27T13:16:29;5.25;;;3.90;;
45650;SDS011;31365;48.858;8.530;2024-01-27T13:18:57;5.32;;;3.85;;
45650;SDS011;31365;48.858;8.530;2024-01-27T13:21:26;5.43;;;4.13;;
45650;SDS011;31365;48.858;8.530;2024-01-27T13:23:55;6.78;;;4.20;;
45650;SDS011;31365;48.858;8.530;2024-01-27T13:26:25;8.18;;;6.50;;
45650;SDS011;31365;48.858;8.530;2024-01-27T13:28:54;5.10;;;4.05;;
45650;SDS011;31365;48.858;8.530;2024-01-27T13:31:22;4.72;;;4.30;;
45650;SDS011;31365;48.858;8.530;2024-01-27T13:33:51;4.95;;;4.43;;
45650;SDS011;31365;48.858;8.530;2024-01-27T13:36:19;9.57;;;8.60;;
45650;SDS011;31365;48.858;8.530;2024-01-27T13:38:48;7.32;;;5.32;;
45650;SDS011;31365;48.858;8.530;2024-01-27T13:41:17;6.10;;;4.38;;
45650;SDS011;31365;48.858;8.530;2024-01-27T13:43:47;5.72;;;4.40;;
45650;SDS011;31365;48.858;8.530;2024-01-27T13:46:16;5.80;;;5.07;;
45650;SDS011;31365;48.858;8.530;2024-01-27T13:48:50;5.68;;;4.82;;
45650;SDS011;31365;48.858;8.530;2024-01-27T13:51:19;4.47;;;3.10;;
45650;SDS011;31365;48.858;8.530;2024-01-27T13:53:47;5.00;;;3.40;;
45650;SDS011;31365;48.858;8.530;2024-01-27T13:56:16;3.70;;;3.05;;
45650;SDS011;31365;48.858;8.530;2024-01-27T13:58:48;3.55;;;3.17;;
45650;SDS011;31365;48.858;8.530;2024-01-27T14:01:16;3.35;;;2.72;;
45650;SDS011;31365;48.858;8.530;2024-01-27T14:03:46;5.50;;;3.10;;
45650;SDS011;31365;48.858;8.530;2024-01-27T14:06:14;3.90;;;2.92;;
45650;SDS011;31365;48.858;8.530;2024-01-27T14:08:44;6.47;;;2.95;;
45650;SDS011;31365;48.858;8.530;2024-01-27T14:11:13;3.35;;;2.78;;
45650;SDS011;31365;48.858;8.530;2024-01-27T14:13:41;5.50;;;2.75;;
45650;SDS011;31365;48.858;8.530;2024-01-27T14:16:11;3.65;;;2.58;;
45650;SDS011;31365;48.858;8.530;2024-01-27T14:18:40;3.95;;;2.60;;
45650;SDS011;31365;48.858;8.530;2024-01-27T14:21:09;2.70;;;2.50;;
45650;SDS011;31365;48.858;8.530;2024-01-27T14:23:39;3.53;;;2.83;;
45650;SDS011;31365;48.858;8.530;2024-01-27T14:26:07;3.33;;;2.72;;
45650;SDS011;31365;48.858;8.530;2024-01-27T14:28:42;2.70;;;2.50;;
45650;SDS011;31365;48.858;8.530;2024-01-27T14:31:13;2.97;;;2.70;;
45650;SDS011;31365;48.858;8.530;2024-01-27T14:33:41;2.40;;;2.20;;
45650;SDS011;31365;48.858;8.530;2024-01-27T14:36:10;2.67;;;2.38;;
45650;SDS011;31365;48.858;8.530;2024-01-27T14:38:42;2.92;;;2.63;;
45650;SDS011;31365;48.858;8.530;2024-01-27T14:41:11;3.22;;;2.40;;
45650;SDS011;31365;48.858;8.530;2024-01-27T14:43:39;2.40;;;2.20;;
45650;SDS011;31365;48.858;8.530;2024-01-27T14:46:08;3.22;;;2.42;;
45650;SDS011;31365;48.858;8.530;2024-01-27T14:48:39;2.58;;;2.38;;
45650;SDS011;31365;48.858;8.530;2024-01-27T14:51:09;2.60;;;2.30;;
45650;SDS011;31365;48.858;8.530;2024-01-27T14:53:39;3.30;;;2.40;;
45650;SDS011;31365;48.858;8.530;2024-01-27T14:56:08;4.07;;;3.47;;
45650;SDS011;31365;48.858;8.530;2024-01-27T14:58:36;6.15;;;3.65;;